PWSweather.com
Personal Weather Stations
Station Observations
KCOGRAND2
Redlands, Southcamp Road & Dakota Circle, Grand Junction, CO 81507

Redlands, Southcamp Road & Dakota CircleGrand Junction, CO 81507

Lat: 39.055, Lon: -108.637

Elevation: 4870

Station Type: RadioShack WX200

High Low Average
Temperature 61.2°F16.2°F 38.8°F3.8°F 52.0°F11.1°F
Dew Point 24.1°F-4.4°F -3.5°F-19.7°F 12.7°F-10.7°F
Winds 13.0 mph S20.9 mph S Calm Calm 4.8 mph 7.7 mph
Wind Gusts 19.5 mph31.4 mph -- 8.5 mph13.7 mph
Humidity 54% 11% 28%
Pressure 24.98 in845.90 in 24.83 in840.80 in -
Precipitation 0.00 in0.00 in - -
Hour Temp Dew Point Humidity Winds Wind Gusts Pressure Precip Precip Rate Daily Precip Total
12:03 AM 48.9°F9.4°C 10.8°F-11.8°C 21% Calm Calm 3.1 mph5.0 kmh 24.83 in840.8 mb 0.00 in0.0 mm 0.00 in/hr0.0 mm/hr 0.00 in0.0 mm
12:08 AM 49.1°F9.5°C 10.9°F-11.7°C 21% Calm Calm 3.6 mph5.8 kmh 24.83 in840.8 mb 0.00 in0.0 mm 0.00 in/hr0.0 mm/hr 0.00 in0.0 mm
12:13 AM 49.3°F9.6°C 8.8°F-12.9°C 19% Calm Calm 4.0 mph6.4 kmh 24.83 in840.8 mb 0.00 in0.0 mm 0.00 in/hr0.0 mm/hr 0.00 in0.0 mm
12:18 AM 49.1°F9.5°C 8.6°F-13.0°C 19% Calm Calm 3.6 mph5.8 kmh 24.83 in840.8 mb 0.00 in0.0 mm 0.00 in/hr0.0 mm/hr 0.00 in0.0 mm
12:23 AM 49.3°F9.6°C 5.0°F-15.0°C 16% Calm Calm 3.6 mph5.8 kmh 24.83 in840.8 mb 0.00 in0.0 mm 0.00 in/hr0.0 mm/hr 0.00 in0.0 mm
12:28 AM 49.1°F9.5°C 4.8°F-15.1°C 16% Calm Calm 3.6 mph5.8 kmh 24.83 in840.8 mb 0.00 in0.0 mm 0.00 in/hr0.0 mm/hr 0.00 in0.0 mm
12:33 AM 48.9°F9.4°C 4.8°F-15.1°C 16% Calm Calm 4.5 mph7.2 kmh 24.83 in840.8 mb 0.00 in0.0 mm 0.00 in/hr0.0 mm/hr 0.00 in0.0 mm
12:38 AM 48.7°F9.3°C 4.6°F-15.2°C 16% Calm Calm 3.1 mph5.0 kmh 24.83 in840.8 mb 0.00 in0.0 mm 0.00 in/hr0.0 mm/hr 0.00 in0.0 mm
12:43 AM 48.7°F9.3°C 4.6°F-15.2°C 16% 1.0 mph NNE1.6 kmh NNE 4.9 mph7.9 kmh 24.83 in840.8 mb 0.00 in0.0 mm 0.00 in/hr0.0 mm/hr 0.00 in0.0 mm
12:48 AM 48.2°F9.0°C 4.1°F-15.5°C 16% 2.0 mph NE3.2 kmh NE 4.5 mph7.2 kmh 24.83 in840.8 mb 0.00 in0.0 mm 0.00 in/hr0.0 mm/hr 0.00 in0.0 mm
12:53 AM 47.3°F8.5°C 12.4°F-10.9°C 24% 2.0 mph E3.2 kmh E 6.3 mph10.1 kmh 24.83 in840.8 mb 0.00 in0.0 mm 0.00 in/hr0.0 mm/hr 0.00 in0.0 mm
12:58 AM 46.8°F8.2°C 14.5°F-9.7°C 27% 3.0 mph SE4.8 kmh SE 4.9 mph7.9 kmh 24.83 in840.8 mb 0.00 in0.0 mm 0.00 in/hr0.0 mm/hr 0.00 in0.0 mm
01:03 AM 45.1°F7.3°C 17.1°F-8.3°C 32% 4.0 mph SSE6.4 kmh SSE 6.7 mph10.8 kmh 24.83 in840.8 mb 0.00 in0.0 mm 0.00 in/hr0.0 mm/hr 0.00 in0.0 mm
01:08 AM 43.5°F6.4°C 20.3°F-6.5°C 39% 4.0 mph S6.4 kmh S 5.8 mph9.3 kmh 24.86 in841.9 mb 0.00 in0.0 mm 0.00 in/hr0.0 mm/hr 0.00 in0.0 mm
01:13 AM 44.2°F6.8°C 21.4°F-5.9°C 40% 4.0 mph S6.4 kmh S 5.4 mph8.7 kmh 24.86 in841.9 mb 0.00 in0.0 mm 0.00 in/hr0.0 mm/hr 0.00 in0.0 mm
01:18 AM 44.2°F6.8°C 21.4°F-5.9°C 40% 4.0 mph S6.4 kmh S 5.8 mph9.3 kmh 24.86 in841.9 mb 0.00 in0.0 mm 0.00 in/hr0.0 mm/hr 0.00 in0.0 mm
01:23 AM 43.3°F6.3°C 21.7°F-5.7°C 42% 3.0 mph S4.8 kmh S 5.4 mph8.7 kmh 24.86 in841.9 mb 0.00 in0.0 mm 0.00 in/hr0.0 mm/hr 0.00 in0.0 mm
01:28 AM 43.5°F6.4°C 22.5°F-5.3°C 43% 2.0 mph S3.2 kmh S 4.0 mph6.4 kmh 24.86 in841.9 mb 0.00 in0.0 mm 0.00 in/hr0.0 mm/hr 0.00 in0.0 mm
01:33 AM 44.1°F6.7°C 21.9°F-5.6°C 41% 1.0 mph SSW1.6 kmh SSW 4.0 mph6.4 kmh 24.86 in841.9 mb 0.00 in0.0 mm 0.00 in/hr0.0 mm/hr 0.00 in0.0 mm
01:38 AM 44.8°F7.1°C 21.9°F-5.6°C 40% 1.0 mph SSW1.6 kmh SSW 3.1 mph5.0 kmh 24.86 in841.9 mb 0.00 in0.0 mm 0.00 in/hr0.0 mm/hr 0.00 in0.0 mm
01:43 AM 44.8°F7.1°C 21.4°F-5.9°C 39% Calm Calm 4.5 mph7.2 kmh 24.86 in841.9 mb 0.00 in0.0 mm 0.00 in/hr0.0 mm/hr 0.00 in0.0 mm
01:48 AM 45.5°F7.5°C 20.8°F-6.2°C 37% Calm Calm 4.0 mph6.4 kmh 24.86 in841.9 mb 0.00 in0.0 mm 0.00 in/hr0.0 mm/hr 0.00 in0.0 mm
01:53 AM 46.4°F8.0°C 17.4°F-8.1°C 31% 1.0 mph SSE1.6 kmh SSE 4.9 mph7.9 kmh 24.86 in841.9 mb 0.00 in0.0 mm 0.00 in/hr0.0 mm/hr 0.00 in0.0 mm
01:58 AM 45.7°F7.6°C 16.9°F-8.4°C 31% 1.0 mph SE1.6 kmh SE 3.6 mph5.8 kmh 24.86 in841.9 mb 0.00 in0.0 mm 0.00 in/hr0.0 mm/hr 0.00 in0.0 mm
02:03 AM 45.3°F7.4°C 17.2°F-8.2°C 32% 1.0 mph SE1.6 kmh SE 5.8 mph9.3 kmh 24.86 in841.9 mb 0.00 in0.0 mm 0.00 in/hr0.0 mm/hr 0.00 in0.0 mm
02:08 AM 46.8°F8.2°C 15.4°F-9.2°C 28% 2.0 mph ESE3.2 kmh ESE 5.4 mph8.7 kmh 24.86 in841.9 mb 0.00 in0.0 mm 0.00 in/hr0.0 mm/hr 0.00 in0.0 mm
02:13 AM 45.9°F7.7°C 21.7°F-5.7°C 38% 6.0 mph SSE9.7 kmh SSE 14.8 mph23.8 kmh 24.86 in841.9 mb 0.00 in0.0 mm 0.00 in/hr0.0 mm/hr 0.00 in0.0 mm
02:18 AM 43.9°F6.6°C 22.3°F-5.4°C 42% 10.0 mph SSW16.1 kmh SSW 13.4 mph21.6 kmh 24.86 in841.9 mb 0.00 in0.0 mm 0.00 in/hr0.0 mm/hr 0.00 in0.0 mm
02:23 AM 43.0°F6.1°C 22.6°F-5.2°C 44% 6.0 mph S9.7 kmh S 6.9 mph11.1 kmh 24.86 in841.9 mb 0.00 in0.0 mm 0.00 in/hr0.0 mm/hr 0.00 in0.0 mm
02:28 AM 42.8°F6.0°C 23.0°F-5.0°C 45% 3.0 mph SSE4.8 kmh SSE 3.6 mph5.8 kmh 24.86 in841.9 mb 0.00 in0.0 mm 0.00 in/hr0.0 mm/hr 0.00 in0.0 mm
02:33 AM 42.6°F5.9°C 22.8°F-5.1°C 45% 1.0 mph SSE1.6 kmh SSE 4.5 mph7.2 kmh 24.86 in841.9 mb 0.00 in0.0 mm 0.00 in/hr0.0 mm/hr 0.00 in0.0 mm
02:38 AM 43.3°F6.3°C 22.3°F-5.4°C 43% 1.0 mph SSE1.6 kmh SSE 6.9 mph11.1 kmh 24.86 in841.9 mb 0.00 in0.0 mm 0.00 in/hr0.0 mm/hr 0.00 in0.0 mm
02:43 AM 43.5°F6.4°C 23.0°F-5.0°C 44% 3.0 mph NE4.8 kmh NE 6.7 mph10.8 kmh 24.86 in841.9 mb 0.00 in0.0 mm 0.00 in/hr0.0 mm/hr 0.00 in0.0 mm
02:48 AM 44.1°F6.7°C 21.9°F-5.6°C 41% 4.0 mph NNE6.4 kmh NNE 6.3 mph10.1 kmh 24.86 in841.9 mb 0.00 in0.0 mm 0.00 in/hr0.0 mm/hr 0.00 in0.0 mm
02:53 AM 44.8°F7.1°C 21.4°F-5.9°C 39% 3.0 mph N4.8 kmh N 5.4 mph8.7 kmh 24.86 in841.9 mb 0.00 in0.0 mm 0.00 in/hr0.0 mm/hr 0.00 in0.0 mm
02:58 AM 44.6°F7.0°C 21.2°F-6.0°C 39% 2.0 mph N3.2 kmh N 4.0 mph6.4 kmh 24.86 in841.9 mb 0.00 in0.0 mm 0.00 in/hr0.0 mm/hr 0.00 in0.0 mm
03:03 AM 45.3°F7.4°C 21.2°F-6.0°C 38% 2.0 mph N3.2 kmh N 4.9 mph7.9 kmh 24.86 in841.9 mb 0.00 in0.0 mm 0.00 in/hr0.0 mm/hr 0.00 in0.0 mm
03:08 AM 45.0°F7.2°C 20.8°F-6.2°C 38% 1.0 mph N1.6 kmh N 4.5 mph7.2 kmh 24.86 in841.9 mb 0.00 in0.0 mm 0.00 in/hr0.0 mm/hr 0.00 in0.0 mm
03:13 AM 46.4°F8.0°C 18.9°F-7.3°C 33% Calm Calm 2.7 mph4.3 kmh 24.86 in841.9 mb 0.00 in0.0 mm 0.00 in/hr0.0 mm/hr 0.00 in0.0 mm
03:18 AM 47.5°F8.6°C 16.0°F-8.9°C 28% Calm Calm 4.9 mph7.9 kmh 24.86 in841.9 mb 0.00 in0.0 mm 0.00 in/hr0.0 mm/hr 0.00 in0.0 mm
03:23 AM 48.6°F9.2°C 15.3°F-9.3°C 26% 1.0 mph NE1.6 kmh NE 5.8 mph9.3 kmh 24.86 in841.9 mb 0.00 in0.0 mm 0.00 in/hr0.0 mm/hr 0.00 in0.0 mm
03:28 AM 47.8°F8.8°C 15.4°F-9.2°C 27% 1.0 mph E1.6 kmh E 4.9 mph7.9 kmh 24.86 in841.9 mb 0.00 in0.0 mm 0.00 in/hr0.0 mm/hr 0.00 in0.0 mm
03:33 AM 46.8°F8.2°C 16.2°F-8.8°C 29% 1.0 mph E1.6 kmh E 4.5 mph7.2 kmh 24.86 in841.9 mb 0.00 in0.0 mm 0.00 in/hr0.0 mm/hr 0.00 in0.0 mm
03:38 AM 46.8°F8.2°C 16.2°F-8.8°C 29% 1.0 mph ESE1.6 kmh ESE 4.9 mph7.9 kmh 24.86 in841.9 mb 0.00 in0.0 mm 0.00 in/hr0.0 mm/hr 0.00 in0.0 mm
03:43 AM 47.1°F8.4°C 14.9°F-9.5°C 27% 1.0 mph SE1.6 kmh SE 4.0 mph6.4 kmh 24.86 in841.9 mb 0.00 in0.0 mm 0.00 in/hr0.0 mm/hr 0.00 in0.0 mm
03:48 AM 47.7°F8.7°C 15.3°F-9.3°C 27% 2.0 mph SE3.2 kmh SE 8.3 mph13.4 kmh 24.86 in841.9 mb 0.00 in0.0 mm 0.00 in/hr0.0 mm/hr 0.00 in0.0 mm
03:53 AM 47.7°F8.7°C 16.2°F-8.8°C 28% 4.0 mph SE6.4 kmh SE 9.2 mph14.8 kmh 24.86 in841.9 mb 0.00 in0.0 mm 0.00 in/hr0.0 mm/hr 0.00 in0.0 mm
03:58 AM 45.9°F7.7°C 19.8°F-6.8°C 35% 4.0 mph SSE6.4 kmh SSE 5.4 mph8.7 kmh 24.86 in841.9 mb 0.00 in0.0 mm 0.00 in/hr0.0 mm/hr 0.00 in0.0 mm
04:03 AM 43.2°F6.2°C 20.5°F-6.4°C 40% 3.0 mph SSE4.8 kmh SSE 5.4 mph8.7 kmh 24.86 in841.9 mb 0.00 in0.0 mm 0.00 in/hr0.0 mm/hr 0.00 in0.0 mm
04:08 AM 41.5°F5.3°C 23.9°F-4.5°C 49% 4.0 mph SSW6.4 kmh SSW 7.8 mph12.6 kmh 24.86 in841.9 mb 0.00 in0.0 mm 0.00 in/hr0.0 mm/hr 0.00 in0.0 mm
04:13 AM 41.5°F5.3°C 23.9°F-4.5°C 49% 5.0 mph SW8.0 kmh SW 7.4 mph11.9 kmh 24.86 in841.9 mb 0.00 in0.0 mm 0.00 in/hr0.0 mm/hr 0.00 in0.0 mm
04:18 AM 41.4°F5.2°C 24.1°F-4.4°C 50% 5.0 mph SW8.0 kmh SW 6.3 mph10.1 kmh 24.86 in841.9 mb 0.00 in0.0 mm 0.00 in/hr0.0 mm/hr 0.00 in0.0 mm
04:23 AM 40.1°F4.5°C 23.9°F-4.5°C 52% 3.0 mph S4.8 kmh S 4.5 mph7.2 kmh 24.89 in842.9 mb 0.00 in0.0 mm 0.00 in/hr0.0 mm/hr 0.00 in0.0 mm
04:28 AM 39.4°F4.1°C 23.7°F-4.6°C 53% 2.0 mph SSE3.2 kmh SSE 4.0 mph6.4 kmh 24.89 in842.9 mb 0.00 in0.0 mm 0.00 in/hr0.0 mm/hr 0.00 in0.0 mm
04:33 AM 38.8°F3.8°C 23.7°F-4.6°C 54% Calm Calm 3.6 mph5.8 kmh 24.89 in842.9 mb 0.00 in0.0 mm 0.00 in/hr0.0 mm/hr 0.00 in0.0 mm
04:39 AM 39.0°F3.9°C 23.7°F-4.6°C 54% Calm Calm 3.1 mph5.0 kmh 24.89 in842.9 mb 0.00 in0.0 mm 0.00 in/hr0.0 mm/hr 0.00 in0.0 mm
04:44 AM 39.0°F3.9°C 23.7°F-4.6°C 54% Calm Calm -- 24.89 in842.9 mb 0.00 in0.0 mm 0.00 in/hr0.0 mm/hr 0.00 in0.0 mm
04:49 AM 39.4°F4.1°C 24.1°F-4.4°C 54% Calm Calm 3.1 mph5.0 kmh 24.89 in842.9 mb 0.00 in0.0 mm 0.00 in/hr0.0 mm/hr 0.00 in0.0 mm
04:54 AM 39.7°F4.3°C 23.5°F-4.7°C 52% Calm Calm 3.6 mph5.8 kmh 24.89 in842.9 mb 0.00 in0.0 mm 0.00 in/hr0.0 mm/hr 0.00 in0.0 mm
04:59 AM 40.1°F4.5°C 23.4°F-4.8°C 51% Calm Calm 3.6 mph5.8 kmh 24.89 in842.9 mb 0.00 in0.0 mm 0.00 in/hr0.0 mm/hr 0.00 in0.0 mm
05:04 AM 41.0°F5.0°C 23.4°F-4.8°C 49% Calm Calm -- 24.89 in842.9 mb 0.00 in0.0 mm 0.00 in/hr0.0 mm/hr 0.00 in0.0 mm
05:09 AM 42.1°F5.6°C 21.2°F-6.0°C 43% Calm Calm 3.1 mph5.0 kmh 24.89 in842.9 mb 0.00 in0.0 mm 0.00 in/hr0.0 mm/hr 0.00 in0.0 mm
05:14 AM 43.3°F6.3°C 20.1°F-6.6°C 39% Calm Calm 3.1 mph5.0 kmh 24.89 in842.9 mb 0.00 in0.0 mm 0.00 in/hr0.0 mm/hr 0.00 in0.0 mm
05:19 AM 44.2°F6.8°C 17.1°F-8.3°C 33% 1.0 mph SSE1.6 kmh SSE 5.4 mph8.7 kmh 24.89 in842.9 mb 0.00 in0.0 mm 0.00 in/hr0.0 mm/hr 0.00 in0.0 mm
05:24 AM 45.3°F7.4°C 14.2°F-9.9°C 28% 3.0 mph SE4.8 kmh SE 6.7 mph10.8 kmh 24.89 in842.9 mb 0.00 in0.0 mm 0.00 in/hr0.0 mm/hr 0.00 in0.0 mm
05:29 AM 45.7°F7.6°C 10.9°F-11.7°C 24% 4.0 mph SE6.4 kmh SE 7.4 mph11.9 kmh 24.89 in842.9 mb 0.00 in0.0 mm 0.00 in/hr0.0 mm/hr 0.00 in0.0 mm
05:34 AM 46.6°F8.1°C 4.1°F-15.5°C 17% 4.0 mph SSE6.4 kmh SSE 10.5 mph16.9 kmh 24.89 in842.9 mb 0.00 in0.0 mm 0.00 in/hr0.0 mm/hr 0.00 in0.0 mm
05:39 AM 48.7°F9.3°C -3.5°F-19.7°C 11% 6.0 mph SSE9.7 kmh SSE 10.5 mph16.9 kmh 24.89 in842.9 mb 0.00 in0.0 mm 0.00 in/hr0.0 mm/hr 0.00 in0.0 mm
05:44 AM 49.8°F9.9°C -2.6°F-19.2°C 11% 8.0 mph SE12.9 kmh SE 11.6 mph18.7 kmh 24.89 in842.9 mb 0.00 in0.0 mm 0.00 in/hr0.0 mm/hr 0.00 in0.0 mm
05:49 AM 50.5°F10.3°C -5537.2°C - 8.0 mph SE12.9 kmh SE 12.5 mph20.1 kmh 24.89 in842.9 mb 0.00 in0.0 mm 0.00 in/hr0.0 mm/hr 0.00 in0.0 mm
05:54 AM 50.2°F10.1°C -5537.2°C - 8.0 mph SE12.9 kmh SE 12.1 mph19.5 kmh 24.89 in842.9 mb 0.00 in0.0 mm 0.00 in/hr0.0 mm/hr 0.00 in0.0 mm
05:59 AM 50.5°F10.3°C -5537.2°C - 8.0 mph SE12.9 kmh SE 14.8 mph23.8 kmh 24.89 in842.9 mb 0.00 in0.0 mm 0.00 in/hr0.0 mm/hr 0.00 in0.0 mm
06:04 AM 48.2°F9.0°C 1.2°F-17.1°C 14% 9.0 mph S14.5 kmh S 15.2 mph24.5 kmh 24.89 in842.9 mb 0.00 in0.0 mm 0.00 in/hr0.0 mm/hr 0.00 in0.0 mm
06:09 AM 47.1°F8.4°C 7.0°F-13.9°C 19% 8.0 mph SW12.9 kmh SW 12.1 mph19.5 kmh 24.89 in842.9 mb 0.00 in0.0 mm 0.00 in/hr0.0 mm/hr 0.00 in0.0 mm
06:14 AM 45.3°F7.4°C 14.9°F-9.5°C 29% 7.0 mph SW11.3 kmh SW 10.1 mph16.3 kmh 24.89 in842.9 mb 0.00 in0.0 mm 0.00 in/hr0.0 mm/hr 0.00 in0.0 mm
06:19 AM 45.3°F7.4°C 14.9°F-9.5°C 29% 6.0 mph SW9.7 kmh SW 8.7 mph14.0 kmh 24.89 in842.9 mb 0.00 in0.0 mm 0.00 in/hr0.0 mm/hr 0.00 in0.0 mm
06:24 AM 45.7°F7.6°C 13.6°F-10.2°C 27% 4.0 mph SW6.4 kmh SW 6.9 mph11.1 kmh 24.92 in843.9 mb 0.00 in0.0 mm 0.00 in/hr0.0 mm/hr 0.00 in0.0 mm
06:29 AM 45.1°F7.3°C 14.0°F-10.0°C 28% 2.0 mph SSW3.2 kmh SSW 4.9 mph7.9 kmh 24.92 in843.9 mb 0.00 in0.0 mm 0.00 in/hr0.0 mm/hr 0.00 in0.0 mm
06:34 AM 45.0°F7.2°C 13.8°F-10.1°C 28% 2.0 mph S3.2 kmh S 5.8 mph9.3 kmh 24.92 in843.9 mb 0.00 in0.0 mm 0.00 in/hr0.0 mm/hr 0.00 in0.0 mm
06:39 AM 44.1°F6.7°C 13.8°F-10.1°C 29% 2.0 mph NE3.2 kmh NE 4.9 mph7.9 kmh 24.92 in843.9 mb 0.00 in0.0 mm 0.00 in/hr0.0 mm/hr 0.00 in0.0 mm
06:44 AM 43.9°F6.6°C 14.5°F-9.7°C 30% 3.0 mph NE4.8 kmh NE 5.8 mph9.3 kmh 24.92 in843.9 mb 0.00 in0.0 mm 0.00 in/hr0.0 mm/hr 0.00 in0.0 mm
06:49 AM 43.2°F6.2°C 18.7°F-7.4°C 37% 6.0 mph N9.7 kmh N 13.0 mph20.9 kmh 24.92 in843.9 mb 0.00 in0.0 mm 0.00 in/hr0.0 mm/hr 0.00 in0.0 mm
06:54 AM 43.2°F6.2°C 19.2°F-7.1°C 38% 7.0 mph NW11.3 kmh NW 10.1 mph16.3 kmh 24.92 in843.9 mb 0.00 in0.0 mm 0.00 in/hr0.0 mm/hr 0.00 in0.0 mm
06:59 AM 43.5°F6.4°C 19.6°F-6.9°C 38% 6.0 mph NW9.7 kmh NW 8.3 mph13.4 kmh 24.92 in843.9 mb 0.00 in0.0 mm 0.00 in/hr0.0 mm/hr 0.00 in0.0 mm
07:04 AM 44.6°F7.0°C 18.0°F-7.8°C 34% 6.0 mph NNW9.7 kmh NNW 8.3 mph13.4 kmh 24.92 in843.9 mb 0.00 in0.0 mm 0.00 in/hr0.0 mm/hr 0.00 in0.0 mm
07:09 AM 44.6°F7.0°C 16.5°F-8.6°C 32% 6.0 mph N9.7 kmh N 11.0 mph17.7 kmh 24.92 in843.9 mb 0.00 in0.0 mm 0.00 in/hr0.0 mm/hr 0.00 in0.0 mm
07:14 AM 44.8°F7.1°C 16.7°F-8.5°C 32% 6.0 mph N9.7 kmh N 8.3 mph13.4 kmh 24.92 in843.9 mb 0.00 in0.0 mm 0.00 in/hr0.0 mm/hr 0.00 in0.0 mm
07:19 AM 44.6°F7.0°C 16.5°F-8.6°C 32% 5.0 mph N8.0 kmh N 6.9 mph11.1 kmh 24.92 in843.9 mb 0.00 in0.0 mm 0.00 in/hr0.0 mm/hr 0.00 in0.0 mm
07:24 AM 44.2°F6.8°C 17.1°F-8.3°C 33% 4.0 mph NNE6.4 kmh NNE 4.9 mph7.9 kmh 24.95 in844.9 mb 0.00 in0.0 mm 0.00 in/hr0.0 mm/hr 0.00 in0.0 mm
07:29 AM 44.6°F7.0°C 17.2°F-8.2°C 33% 2.0 mph NE3.2 kmh NE 4.5 mph7.2 kmh 24.95 in844.9 mb 0.00 in0.0 mm 0.00 in/hr0.0 mm/hr 0.00 in0.0 mm
07:34 AM 44.6°F7.0°C 17.2°F-8.2°C 33% 2.0 mph NE3.2 kmh NE 4.0 mph6.4 kmh 24.95 in844.9 mb 0.00 in0.0 mm 0.00 in/hr0.0 mm/hr 0.00 in0.0 mm
07:39 AM 45.1°F7.3°C 17.1°F-8.3°C 32% 1.0 mph NE1.6 kmh NE 3.6 mph5.8 kmh 24.95 in844.9 mb 0.00 in0.0 mm 0.00 in/hr0.0 mm/hr 0.00 in0.0 mm
07:44 AM 45.3°F7.4°C 16.5°F-8.6°C 31% 1.0 mph NE1.6 kmh NE 4.0 mph6.4 kmh 24.95 in844.9 mb 0.00 in0.0 mm 0.00 in/hr0.0 mm/hr 0.00 in0.0 mm
07:49 AM 45.9°F7.7°C 16.2°F-8.8°C 30% 2.0 mph NE3.2 kmh NE 3.6 mph5.8 kmh 24.95 in844.9 mb 0.00 in0.0 mm 0.00 in/hr0.0 mm/hr 0.00 in0.0 mm
07:54 AM 46.4°F8.0°C 15.1°F-9.4°C 28% 2.0 mph NE3.2 kmh NE 4.0 mph6.4 kmh 24.95 in844.9 mb 0.00 in0.0 mm 0.00 in/hr0.0 mm/hr 0.00 in0.0 mm
07:59 AM 46.6°F8.1°C 15.3°F-9.3°C 28% 2.0 mph NE3.2 kmh NE 4.0 mph6.4 kmh 24.95 in844.9 mb 0.00 in0.0 mm 0.00 in/hr0.0 mm/hr 0.00 in0.0 mm
08:04 AM 46.6°F8.1°C 16.0°F-8.9°C 29% 2.0 mph NE3.2 kmh NE 4.5 mph7.2 kmh 24.95 in844.9 mb 0.00 in0.0 mm 0.00 in/hr0.0 mm/hr 0.00 in0.0 mm
08:15 AM 47.8°F8.8°C 15.4°F-9.2°C 27% 2.0 mph NE3.2 kmh NE 4.5 mph7.2 kmh 24.95 in844.9 mb 0.00 in0.0 mm 0.00 in/hr0.0 mm/hr 0.00 in0.0 mm
08:20 AM 48.7°F9.3°C 15.4°F-9.2°C 26% 3.0 mph NE4.8 kmh NE 6.7 mph10.8 kmh 24.95 in844.9 mb 0.00 in0.0 mm 0.00 in/hr0.0 mm/hr 0.00 in0.0 mm
08:25 AM 49.8°F9.9°C 14.5°F-9.7°C 24% 4.0 mph NE6.4 kmh NE 7.4 mph11.9 kmh 24.95 in844.9 mb 0.00 in0.0 mm 0.00 in/hr0.0 mm/hr 0.00 in0.0 mm
08:30 AM 50.4°F10.2°C 5.9°F-14.5°C 16% 4.0 mph NE6.4 kmh NE 6.9 mph11.1 kmh 24.95 in844.9 mb 0.00 in0.0 mm 0.00 in/hr0.0 mm/hr 0.00 in0.0 mm
08:35 AM 50.4°F10.2°C 5.9°F-14.5°C 16% 4.0 mph NE6.4 kmh NE 6.9 mph11.1 kmh 24.95 in844.9 mb 0.00 in0.0 mm 0.00 in/hr0.0 mm/hr 0.00 in0.0 mm
08:41 AM 50.5°F10.3°C 3.2°F-16.0°C 14% 4.0 mph NE6.4 kmh NE 8.3 mph13.4 kmh 24.95 in844.9 mb 0.00 in0.0 mm 0.00 in/hr0.0 mm/hr 0.00 in0.0 mm
08:46 AM 51.3°F10.7°C 6.6°F-14.1°C 16% 4.0 mph NNE6.4 kmh NNE 7.4 mph11.9 kmh 24.95 in844.9 mb 0.00 in0.0 mm 0.00 in/hr0.0 mm/hr 0.00 in0.0 mm
08:51 AM 51.1°F10.6°C 1.9°F-16.7°C 13% 4.0 mph NNE6.4 kmh NNE 7.8 mph12.6 kmh 24.98 in845.9 mb 0.00 in0.0 mm 0.00 in/hr0.0 mm/hr 0.00 in0.0 mm
08:56 AM 51.3°F10.7°C -1.5°F-18.6°C 11% 4.0 mph N6.4 kmh N 6.9 mph11.1 kmh 24.98 in845.9 mb 0.00 in0.0 mm 0.00 in/hr0.0 mm/hr 0.00 in0.0 mm
09:01 AM 51.3°F10.7°C -1.5°F-18.6°C 11% 3.0 mph N4.8 kmh N 7.4 mph11.9 kmh 24.98 in845.9 mb 0.00 in0.0 mm 0.00 in/hr0.0 mm/hr 0.00 in0.0 mm
09:06 AM 51.3°F10.7°C -1.5°F-18.6°C 11% 5.0 mph N8.0 kmh N 9.6 mph15.4 kmh 24.98 in845.9 mb 0.00 in0.0 mm 0.00 in/hr0.0 mm/hr 0.00 in0.0 mm
09:11 AM 51.6°F10.9°C -1.1°F-18.4°C 11% 6.0 mph N9.7 kmh N 8.7 mph14.0 kmh 24.98 in845.9 mb 0.00 in0.0 mm 0.00 in/hr0.0 mm/hr 0.00 in0.0 mm
09:16 AM 53.1°F11.7°C 3.6°F-15.8°C 13% 3.0 mph N4.8 kmh N 4.0 mph6.4 kmh 24.98 in845.9 mb 0.00 in0.0 mm 0.00 in/hr0.0 mm/hr 0.00 in0.0 mm
09:21 AM 53.6°F12.0°C -5537.2°C - 1.0 mph N1.6 kmh N 5.4 mph8.7 kmh 24.98 in845.9 mb 0.00 in0.0 mm 0.00 in/hr0.0 mm/hr 0.00 in0.0 mm
09:26 AM 52.3°F11.3°C -0.6°F-18.1°C 11% 3.0 mph NW4.8 kmh NW 6.9 mph11.1 kmh 24.98 in845.9 mb 0.00 in0.0 mm 0.00 in/hr0.0 mm/hr 0.00 in0.0 mm
09:31 AM 51.8°F11.0°C -0.9°F-18.3°C 11% 6.0 mph SW9.7 kmh SW 10.5 mph16.9 kmh 24.98 in845.9 mb 0.00 in0.0 mm 0.00 in/hr0.0 mm/hr 0.00 in0.0 mm
09:36 AM 52.0°F11.1°C -0.9°F-18.3°C 11% 6.0 mph WSW9.7 kmh WSW 10.5 mph16.9 kmh 24.98 in845.9 mb 0.00 in0.0 mm 0.00 in/hr0.0 mm/hr 0.00 in0.0 mm
09:41 AM 52.0°F11.1°C -0.9°F-18.3°C 11% 5.0 mph W8.0 kmh W 7.4 mph11.9 kmh 24.98 in845.9 mb 0.00 in0.0 mm 0.00 in/hr0.0 mm/hr 0.00 in0.0 mm
09:46 AM 52.5°F11.4°C -0.4°F-18.0°C 11% 6.0 mph W9.7 kmh W 9.6 mph15.4 kmh 24.98 in845.9 mb 0.00 in0.0 mm 0.00 in/hr0.0 mm/hr 0.00 in0.0 mm
09:51 AM 52.9°F11.6°C -5537.2°C - 5.0 mph WNW8.0 kmh WNW 11.2 mph18.0 kmh 24.98 in845.9 mb 0.00 in0.0 mm 0.00 in/hr0.0 mm/hr 0.00 in0.0 mm
09:56 AM 52.5°F11.4°C -0.4°F-18.0°C 11% 6.0 mph W9.7 kmh W 10.5 mph16.9 kmh 24.98 in845.9 mb 0.00 in0.0 mm 0.00 in/hr0.0 mm/hr 0.00 in0.0 mm
10:01 AM 52.9°F11.6°C -5537.2°C - 7.0 mph SW11.3 kmh SW 12.5 mph20.1 kmh 24.98 in845.9 mb 0.00 in0.0 mm 0.00 in/hr0.0 mm/hr 0.00 in0.0 mm
10:06 AM 53.1°F11.7°C -5537.2°C - 7.0 mph WSW11.3 kmh WSW 10.5 mph16.9 kmh 24.98 in845.9 mb 0.00 in0.0 mm 0.00 in/hr0.0 mm/hr 0.00 in0.0 mm
10:11 AM 53.4°F11.9°C -5537.2°C - 5.0 mph WSW8.0 kmh WSW 10.1 mph16.3 kmh 24.98 in845.9 mb 0.00 in0.0 mm 0.00 in/hr0.0 mm/hr 0.00 in0.0 mm
10:16 AM 52.9°F11.6°C -5537.2°C - 6.0 mph WSW9.7 kmh WSW 13.0 mph20.9 kmh 24.98 in845.9 mb 0.00 in0.0 mm 0.00 in/hr0.0 mm/hr 0.00 in0.0 mm
10:21 AM 53.1°F11.7°C -5537.2°C - 8.0 mph SW12.9 kmh SW 12.1 mph19.5 kmh 24.98 in845.9 mb 0.00 in0.0 mm 0.00 in/hr0.0 mm/hr 0.00 in0.0 mm
10:26 AM 53.1°F11.7°C -5537.2°C - 8.0 mph SW12.9 kmh SW 11.2 mph18.0 kmh 24.98 in845.9 mb 0.00 in0.0 mm 0.00 in/hr0.0 mm/hr 0.00 in0.0 mm
10:31 AM 53.4°F11.9°C -5537.2°C - 6.0 mph SW9.7 kmh SW 10.5 mph16.9 kmh 24.98 in845.9 mb 0.00 in0.0 mm 0.00 in/hr0.0 mm/hr 0.00 in0.0 mm
10:36 AM 53.6°F12.0°C -5537.2°C - 6.0 mph WSW9.7 kmh WSW 10.5 mph16.9 kmh 24.98 in845.9 mb 0.00 in0.0 mm 0.00 in/hr0.0 mm/hr 0.00 in0.0 mm
10:41 AM 54.1°F12.3°C -5537.2°C - 5.0 mph W8.0 kmh W 6.7 mph10.8 kmh 24.98 in845.9 mb 0.00 in0.0 mm 0.00 in/hr0.0 mm/hr 0.00 in0.0 mm
10:46 AM 53.8°F12.1°C -5537.2°C - 5.0 mph W8.0 kmh W 11.0 mph17.7 kmh 24.98 in845.9 mb 0.00 in0.0 mm 0.00 in/hr0.0 mm/hr 0.00 in0.0 mm
10:51 AM 54.0°F12.2°C -5537.2°C - 6.0 mph WSW9.7 kmh WSW 8.7 mph14.0 kmh 24.98 in845.9 mb 0.00 in0.0 mm 0.00 in/hr0.0 mm/hr 0.00 in0.0 mm
10:56 AM 54.1°F12.3°C -5537.2°C - 4.0 mph WNW6.4 kmh WNW 9.2 mph14.8 kmh 24.98 in845.9 mb 0.00 in0.0 mm 0.00 in/hr0.0 mm/hr 0.00 in0.0 mm
11:01 AM 54.1°F12.3°C -5537.2°C - 4.0 mph NW6.4 kmh NW 7.8 mph12.6 kmh 24.98 in845.9 mb 0.00 in0.0 mm 0.00 in/hr0.0 mm/hr 0.00 in0.0 mm
11:06 AM 54.7°F12.6°C -5537.2°C - 4.0 mph NNW6.4 kmh NNW 7.8 mph12.6 kmh 24.98 in845.9 mb 0.00 in0.0 mm 0.00 in/hr0.0 mm/hr 0.00 in0.0 mm
11:11 AM 55.4°F13.0°C -5537.2°C - 3.0 mph N4.8 kmh N 5.4 mph8.7 kmh 24.98 in845.9 mb 0.00 in0.0 mm 0.00 in/hr0.0 mm/hr 0.00 in0.0 mm
11:16 AM 56.7°F13.7°C -5537.2°C - 2.0 mph NE3.2 kmh NE 4.5 mph7.2 kmh 24.98 in845.9 mb 0.00 in0.0 mm 0.00 in/hr0.0 mm/hr 0.00 in0.0 mm
11:21 AM 55.2°F12.9°C -5537.2°C - 4.0 mph N6.4 kmh N 9.2 mph14.8 kmh 24.98 in845.9 mb 0.00 in0.0 mm 0.00 in/hr0.0 mm/hr 0.00 in0.0 mm
11:26 AM 54.9°F12.7°C -5537.2°C - 6.0 mph WSW9.7 kmh WSW 11.0 mph17.7 kmh 24.98 in845.9 mb 0.00 in0.0 mm 0.00 in/hr0.0 mm/hr 0.00 in0.0 mm
11:31 AM 54.7°F12.6°C -5537.2°C - 5.0 mph W8.0 kmh W 8.3 mph13.4 kmh 24.98 in845.9 mb 0.00 in0.0 mm 0.00 in/hr0.0 mm/hr 0.00 in0.0 mm
11:36 AM 55.0°F12.8°C -5537.2°C - 4.0 mph NW6.4 kmh NW 6.3 mph10.1 kmh 24.98 in845.9 mb 0.00 in0.0 mm 0.00 in/hr0.0 mm/hr 0.00 in0.0 mm
11:41 AM 55.0°F12.8°C -5537.2°C - 3.0 mph N4.8 kmh N 6.9 mph11.1 kmh 24.98 in845.9 mb 0.00 in0.0 mm 0.00 in/hr0.0 mm/hr 0.00 in0.0 mm
11:46 AM 54.7°F12.6°C -5537.2°C - 4.0 mph N6.4 kmh N 11.2 mph18.0 kmh 24.98 in845.9 mb 0.00 in0.0 mm 0.00 in/hr0.0 mm/hr 0.00 in0.0 mm
11:51 AM 55.2°F12.9°C -5537.2°C - 6.0 mph WSW9.7 kmh WSW 10.5 mph16.9 kmh 24.98 in845.9 mb 0.00 in0.0 mm 0.00 in/hr0.0 mm/hr 0.00 in0.0 mm
11:56 AM 54.9°F12.7°C -5537.2°C - 7.0 mph SW11.3 kmh SW 10.5 mph16.9 kmh 24.98 in845.9 mb 0.00 in0.0 mm 0.00 in/hr0.0 mm/hr 0.00 in0.0 mm
12:01 PM 54.7°F12.6°C -5537.2°C - 6.0 mph SW9.7 kmh SW 11.0 mph17.7 kmh 24.98 in845.9 mb 0.00 in0.0 mm 0.00 in/hr0.0 mm/hr 0.00 in0.0 mm
12:06 PM 54.9°F12.7°C -5537.2°C - 5.0 mph WSW8.0 kmh WSW 7.8 mph12.6 kmh 24.98 in845.9 mb 0.00 in0.0 mm 0.00 in/hr0.0 mm/hr 0.00 in0.0 mm
12:11 PM 56.1°F13.4°C -5537.2°C - 5.0 mph WSW8.0 kmh WSW 10.5 mph16.9 kmh 24.98 in845.9 mb 0.00 in0.0 mm 0.00 in/hr0.0 mm/hr 0.00 in0.0 mm
12:16 PM 55.8°F13.2°C -5537.2°C - 6.0 mph S9.7 kmh S 10.1 mph16.3 kmh 24.98 in845.9 mb 0.00 in0.0 mm 0.00 in/hr0.0 mm/hr 0.00 in0.0 mm
12:21 PM 56.3°F13.5°C -5537.2°C - 5.0 mph SSE8.0 kmh SSE 7.8 mph12.6 kmh 24.98 in845.9 mb 0.00 in0.0 mm 0.00 in/hr0.0 mm/hr 0.00 in0.0 mm
12:26 PM 55.4°F13.0°C -5537.2°C - 6.0 mph SSE9.7 kmh SSE 12.1 mph19.5 kmh 24.98 in845.9 mb 0.00 in0.0 mm 0.00 in/hr0.0 mm/hr 0.00 in0.0 mm
12:31 PM 56.3°F13.5°C -5537.2°C - 6.0 mph SE9.7 kmh SE 6.9 mph11.1 kmh 24.98 in845.9 mb 0.00 in0.0 mm 0.00 in/hr0.0 mm/hr 0.00 in0.0 mm
12:36 PM 56.1°F13.4°C -5537.2°C - 5.0 mph SSE8.0 kmh SSE 10.1 mph16.3 kmh 24.95 in844.9 mb 0.00 in0.0 mm 0.00 in/hr0.0 mm/hr 0.00 in0.0 mm
12:41 PM 55.2°F12.9°C -5537.2°C - 7.0 mph SW11.3 kmh SW 14.3 mph23.0 kmh 24.95 in844.9 mb 0.00 in0.0 mm 0.00 in/hr0.0 mm/hr 0.00 in0.0 mm
12:46 PM 55.6°F13.1°C -5537.2°C - 8.0 mph SW12.9 kmh SW 13.4 mph21.6 kmh 24.95 in844.9 mb 0.00 in0.0 mm 0.00 in/hr0.0 mm/hr 0.00 in0.0 mm
12:51 PM 55.6°F13.1°C -5537.2°C - 8.0 mph SW12.9 kmh SW 10.5 mph16.9 kmh 24.95 in844.9 mb 0.00 in0.0 mm 0.00 in/hr0.0 mm/hr 0.00 in0.0 mm
12:56 PM 56.7°F13.7°C -5537.2°C - 7.0 mph SW11.3 kmh SW 9.6 mph15.4 kmh 24.95 in844.9 mb 0.00 in0.0 mm 0.00 in/hr0.0 mm/hr 0.00 in0.0 mm
01:01 PM 55.8°F13.2°C -5537.2°C - 6.0 mph SW9.7 kmh SW 11.0 mph17.7 kmh 24.95 in844.9 mb 0.00 in0.0 mm 0.00 in/hr0.0 mm/hr 0.00 in0.0 mm
01:06 PM 56.1°F13.4°C -5537.2°C - 5.0 mph SSW8.0 kmh SSW 9.6 mph15.4 kmh 24.95 in844.9 mb 0.00 in0.0 mm 0.00 in/hr0.0 mm/hr 0.00 in0.0 mm
01:11 PM 57.0°F13.9°C -5537.2°C - 4.0 mph SE6.4 kmh SE 6.7 mph10.8 kmh 24.95 in844.9 mb 0.00 in0.0 mm 0.00 in/hr0.0 mm/hr 0.00 in0.0 mm
01:17 PM 56.8°F13.8°C -5537.2°C - 5.0 mph SSE8.0 kmh SSE 10.5 mph16.9 kmh 24.95 in844.9 mb 0.00 in0.0 mm 0.00 in/hr0.0 mm/hr 0.00 in0.0 mm
01:22 PM 56.3°F13.5°C -5537.2°C - 8.0 mph SSW12.9 kmh SSW 12.5 mph20.1 kmh 24.95 in844.9 mb 0.00 in0.0 mm 0.00 in/hr0.0 mm/hr 0.00 in0.0 mm
01:27 PM 56.5°F13.6°C -5537.2°C - 7.0 mph S11.3 kmh S 8.7 mph14.0 kmh 24.95 in844.9 mb 0.00 in0.0 mm 0.00 in/hr0.0 mm/hr 0.00 in0.0 mm
01:32 PM 56.7°F13.7°C -5537.2°C - 4.0 mph SE6.4 kmh SE 8.7 mph14.0 kmh 24.95 in844.9 mb 0.00 in0.0 mm 0.00 in/hr0.0 mm/hr 0.00 in0.0 mm
01:37 PM 56.8°F13.8°C -5537.2°C - 4.0 mph SSE6.4 kmh SSE 12.5 mph20.1 kmh 24.95 in844.9 mb 0.00 in0.0 mm 0.00 in/hr0.0 mm/hr 0.00 in0.0 mm
01:42 PM 56.7°F13.7°C -5537.2°C - 6.0 mph SSW9.7 kmh SSW 11.6 mph18.7 kmh 24.95 in844.9 mb 0.00 in0.0 mm 0.00 in/hr0.0 mm/hr 0.00 in0.0 mm
01:47 PM 57.6°F14.2°C -5537.2°C - 5.0 mph S8.0 kmh S 8.7 mph14.0 kmh 24.95 in844.9 mb 0.00 in0.0 mm 0.00 in/hr0.0 mm/hr 0.00 in0.0 mm
01:52 PM 57.7°F14.3°C -5537.2°C - 5.0 mph S8.0 kmh S 11.0 mph17.7 kmh 24.95 in844.9 mb 0.00 in0.0 mm 0.00 in/hr0.0 mm/hr 0.00 in0.0 mm
01:57 PM 57.6°F14.2°C -5537.2°C - 7.0 mph S11.3 kmh S 11.6 mph18.7 kmh 24.95 in844.9 mb 0.00 in0.0 mm 0.00 in/hr0.0 mm/hr 0.00 in0.0 mm
02:02 PM 58.1°F14.5°C -5537.2°C - 6.0 mph SSE9.7 kmh SSE 8.7 mph14.0 kmh 24.95 in844.9 mb 0.00 in0.0 mm 0.00 in/hr0.0 mm/hr 0.00 in0.0 mm
02:07 PM 57.2°F14.0°C -5537.2°C - 6.0 mph S9.7 kmh S 12.5 mph20.1 kmh 24.95 in844.9 mb 0.00 in0.0 mm 0.00 in/hr0.0 mm/hr 0.00 in0.0 mm
02:12 PM 57.2°F14.0°C -5537.2°C - 6.0 mph SSW9.7 kmh SSW 8.7 mph14.0 kmh 24.95 in844.9 mb 0.00 in0.0 mm 0.00 in/hr0.0 mm/hr 0.00 in0.0 mm
02:17 PM 57.4°F14.1°C -5537.2°C - 5.0 mph S8.0 kmh S 9.2 mph14.8 kmh 24.95 in844.9 mb 0.00 in0.0 mm 0.00 in/hr0.0 mm/hr 0.00 in0.0 mm
02:22 PM 58.1°F14.5°C -5537.2°C - 6.0 mph S9.7 kmh S 11.6 mph18.7 kmh 24.95 in844.9 mb 0.00 in0.0 mm 0.00 in/hr0.0 mm/hr 0.00 in0.0 mm
02:27 PM 58.1°F14.5°C -5537.2°C - 8.0 mph S12.9 kmh S 13.0 mph20.9 kmh 24.95 in844.9 mb 0.00 in0.0 mm 0.00 in/hr0.0 mm/hr 0.00 in0.0 mm
02:32 PM 58.1°F14.5°C -5537.2°C - 8.0 mph S12.9 kmh S 11.2 mph18.0 kmh 24.95 in844.9 mb 0.00 in0.0 mm 0.00 in/hr0.0 mm/hr 0.00 in0.0 mm
02:37 PM 58.1°F14.5°C -5537.2°C - 8.0 mph S12.9 kmh S 12.5 mph20.1 kmh 24.92 in843.9 mb 0.00 in0.0 mm 0.00 in/hr0.0 mm/hr 0.00 in0.0 mm
02:42 PM 58.3°F14.6°C -5537.2°C - 9.0 mph S14.5 kmh S 14.3 mph23.0 kmh 24.92 in843.9 mb 0.00 in0.0 mm 0.00 in/hr0.0 mm/hr 0.00 in0.0 mm
02:47 PM 57.7°F14.3°C -5537.2°C - 10.0 mph S16.1 kmh S 13.4 mph21.6 kmh 24.92 in843.9 mb 0.00 in0.0 mm 0.00 in/hr0.0 mm/hr 0.00 in0.0 mm
02:52 PM 57.9°F14.4°C -5537.2°C - 10.0 mph S16.1 kmh S 13.9 mph22.4 kmh 24.92 in843.9 mb 0.00 in0.0 mm 0.00 in/hr0.0 mm/hr 0.00 in0.0 mm
02:57 PM 58.1°F14.5°C -5537.2°C - 11.0 mph SSW17.7 kmh SSW 15.9 mph25.6 kmh 24.92 in843.9 mb 0.00 in0.0 mm 0.00 in/hr0.0 mm/hr 0.00 in0.0 mm
03:02 PM 58.5°F14.7°C -5537.2°C - 11.0 mph SSW17.7 kmh SSW 14.3 mph23.0 kmh 24.92 in843.9 mb 0.00 in0.0 mm 0.00 in/hr0.0 mm/hr 0.00 in0.0 mm
03:07 PM 58.5°F14.7°C -5537.2°C - 11.0 mph S17.7 kmh S 14.3 mph23.0 kmh 24.92 in843.9 mb 0.00 in0.0 mm 0.00 in/hr0.0 mm/hr 0.00 in0.0 mm
03:12 PM 58.8°F14.9°C -5537.2°C - 10.0 mph S16.1 kmh S 14.3 mph23.0 kmh 24.92 in843.9 mb 0.00 in0.0 mm 0.00 in/hr0.0 mm/hr 0.00 in0.0 mm
03:17 PM 58.6°F14.8°C -5537.2°C - 10.0 mph S16.1 kmh S 13.9 mph22.4 kmh 24.92 in843.9 mb 0.00 in0.0 mm 0.00 in/hr0.0 mm/hr 0.00 in0.0 mm
03:22 PM 58.5°F14.7°C -5537.2°C - 12.0 mph S19.3 kmh S 19.5 mph31.4 kmh 24.92 in843.9 mb 0.00 in0.0 mm 0.00 in/hr0.0 mm/hr 0.00 in0.0 mm
03:27 PM 59.0°F15.0°C -5537.2°C - 13.0 mph S20.9 kmh S 15.9 mph25.6 kmh 24.92 in843.9 mb 0.00 in0.0 mm 0.00 in/hr0.0 mm/hr 0.00 in0.0 mm
03:32 PM 58.8°F14.9°C -5537.2°C - 12.0 mph S19.3 kmh S 16.8 mph27.0 kmh 24.92 in843.9 mb 0.00 in0.0 mm 0.00 in/hr0.0 mm/hr 0.00 in0.0 mm
03:37 PM 59.0°F15.0°C -5537.2°C - 12.0 mph S19.3 kmh S 15.4 mph24.8 kmh 24.92 in843.9 mb 0.00 in0.0 mm 0.00 in/hr0.0 mm/hr 0.00 in0.0 mm
03:42 PM 59.4°F15.2°C -5537.2°C - 10.0 mph S16.1 kmh S 14.8 mph23.8 kmh 24.92 in843.9 mb 0.00 in0.0 mm 0.00 in/hr0.0 mm/hr 0.00 in0.0 mm
03:47 PM 59.4°F15.2°C -5537.2°C - 10.0 mph S16.1 kmh S 16.3 mph26.2 kmh 24.92 in843.9 mb 0.00 in0.0 mm 0.00 in/hr0.0 mm/hr 0.00 in0.0 mm
03:52 PM 59.4°F15.2°C -5537.2°C - 11.0 mph S17.7 kmh S 15.2 mph24.5 kmh 24.92 in843.9 mb 0.00 in0.0 mm 0.00 in/hr0.0 mm/hr 0.00 in0.0 mm
03:57 PM 58.8°F14.9°C -5537.2°C - 10.0 mph S16.1 kmh S 13.9 mph22.4 kmh 24.92 in843.9 mb 0.00 in0.0 mm 0.00 in/hr0.0 mm/hr 0.00 in0.0 mm
04:02 PM 59.2°F15.1°C -5537.2°C - 9.0 mph S14.5 kmh S 12.5 mph20.1 kmh 24.92 in843.9 mb 0.00 in0.0 mm 0.00 in/hr0.0 mm/hr 0.00 in0.0 mm
04:07 PM 59.4°F15.2°C -5537.2°C - 8.0 mph S12.9 kmh S 15.2 mph24.5 kmh 24.92 in843.9 mb 0.00 in0.0 mm 0.00 in/hr0.0 mm/hr 0.00 in0.0 mm
04:12 PM 59.0°F15.0°C -5537.2°C - 9.0 mph S14.5 kmh S 15.9 mph25.6 kmh 24.92 in843.9 mb 0.00 in0.0 mm 0.00 in/hr0.0 mm/hr 0.00 in0.0 mm
04:17 PM 58.8°F14.9°C -5537.2°C - 10.0 mph S16.1 kmh S 14.8 mph23.8 kmh 24.92 in843.9 mb 0.00 in0.0 mm 0.00 in/hr0.0 mm/hr 0.00 in0.0 mm
04:22 PM 58.8°F14.9°C -5537.2°C - 10.0 mph S16.1 kmh S 13.9 mph22.4 kmh 24.92 in843.9 mb 0.00 in0.0 mm 0.00 in/hr0.0 mm/hr 0.00 in0.0 mm
04:27 PM 58.8°F14.9°C -5537.2°C - 10.0 mph S16.1 kmh S 12.5 mph20.1 kmh 24.92 in843.9 mb 0.00 in0.0 mm 0.00 in/hr0.0 mm/hr 0.00 in0.0 mm
04:32 PM 59.0°F15.0°C -5537.2°C - 8.0 mph S12.9 kmh S 11.2 mph18.0 kmh 24.92 in843.9 mb 0.00 in0.0 mm 0.00 in/hr0.0 mm/hr 0.00 in0.0 mm
04:37 PM 59.0°F15.0°C -5537.2°C - 8.0 mph S12.9 kmh S 13.0 mph20.9 kmh 24.92 in843.9 mb 0.00 in0.0 mm 0.00 in/hr0.0 mm/hr 0.00 in0.0 mm
04:42 PM 59.0°F15.0°C -5537.2°C - 9.0 mph S14.5 kmh S 14.8 mph23.8 kmh 24.92 in843.9 mb 0.00 in0.0 mm 0.00 in/hr0.0 mm/hr 0.00 in0.0 mm
04:47 PM 58.8°F14.9°C -5537.2°C - 9.0 mph SSE14.5 kmh SSE 12.5 mph20.1 kmh 24.92 in843.9 mb 0.00 in0.0 mm 0.00 in/hr0.0 mm/hr 0.00 in0.0 mm
04:52 PM 58.8°F14.9°C -5537.2°C - 9.0 mph SSE14.5 kmh SSE 13.0 mph20.9 kmh 24.92 in843.9 mb 0.00 in0.0 mm 0.00 in/hr0.0 mm/hr 0.00 in0.0 mm
04:57 PM 58.8°F14.9°C -5537.2°C - 8.0 mph SSE12.9 kmh SSE 12.5 mph20.1 kmh 24.92 in843.9 mb 0.00 in0.0 mm 0.00 in/hr0.0 mm/hr 0.00 in0.0 mm
05:02 PM 59.0°F15.0°C -5537.2°C - 7.0 mph SSE11.3 kmh SSE 10.1 mph16.3 kmh 24.92 in843.9 mb 0.00 in0.0 mm 0.00 in/hr0.0 mm/hr 0.00 in0.0 mm
05:07 PM 59.5°F15.3°C -5537.2°C - 6.0 mph SE9.7 kmh SE 11.2 mph18.0 kmh 24.92 in843.9 mb 0.00 in0.0 mm 0.00 in/hr0.0 mm/hr 0.00 in0.0 mm
05:13 PM 59.7°F15.4°C -5537.2°C - 6.0 mph SE9.7 kmh SE 13.0 mph20.9 kmh 24.92 in843.9 mb 0.00 in0.0 mm 0.00 in/hr0.0 mm/hr 0.00 in0.0 mm
05:18 PM 60.4°F15.8°C -5537.2°C - 7.0 mph SE11.3 kmh SE 11.6 mph18.7 kmh 24.92 in843.9 mb 0.00 in0.0 mm 0.00 in/hr0.0 mm/hr 0.00 in0.0 mm
05:23 PM 60.6°F15.9°C -5537.2°C - 6.0 mph SE9.7 kmh SE 10.1 mph16.3 kmh 24.92 in843.9 mb 0.00 in0.0 mm 0.00 in/hr0.0 mm/hr 0.00 in0.0 mm
05:28 PM 61.2°F16.2°C -5537.2°C - 6.0 mph SE9.7 kmh SE 10.5 mph16.9 kmh 24.92 in843.9 mb 0.00 in0.0 mm 0.00 in/hr0.0 mm/hr 0.00 in0.0 mm
05:33 PM 61.2°F16.2°C -5537.2°C - 6.0 mph SE9.7 kmh SE 10.1 mph16.3 kmh 24.92 in843.9 mb 0.00 in0.0 mm 0.00 in/hr0.0 mm/hr 0.00 in0.0 mm
05:38 PM 60.8°F16.0°C -5537.2°C - 6.0 mph SSE9.7 kmh SSE 11.2 mph18.0 kmh 24.92 in843.9 mb 0.00 in0.0 mm 0.00 in/hr0.0 mm/hr 0.00 in0.0 mm
05:43 PM 60.8°F16.0°C -5537.2°C - 6.0 mph SSE9.7 kmh SSE 8.7 mph14.0 kmh 24.92 in843.9 mb 0.00 in0.0 mm 0.00 in/hr0.0 mm/hr 0.00 in0.0 mm
05:48 PM 60.4°F15.8°C -5537.2°C - 5.0 mph S8.0 kmh S 9.2 mph14.8 kmh 24.92 in843.9 mb 0.00 in0.0 mm 0.00 in/hr0.0 mm/hr 0.00 in0.0 mm
05:53 PM 60.8°F16.0°C -5537.2°C - 3.0 mph SSW4.8 kmh SSW 5.8 mph9.3 kmh 24.92 in843.9 mb 0.00 in0.0 mm 0.00 in/hr0.0 mm/hr 0.00 in0.0 mm
05:58 PM 60.8°F16.0°C -5537.2°C - 5.0 mph S8.0 kmh S 11.6 mph18.7 kmh 24.92 in843.9 mb 0.00 in0.0 mm 0.00 in/hr0.0 mm/hr 0.00 in0.0 mm
06:03 PM 60.8°F16.0°C -5537.2°C - 8.0 mph S12.9 kmh S 11.2 mph18.0 kmh 24.92 in843.9 mb 0.00 in0.0 mm 0.00 in/hr0.0 mm/hr 0.00 in0.0 mm
06:08 PM 61.0°F16.1°C -5537.2°C - 6.0 mph SE9.7 kmh SE 6.3 mph10.1 kmh 24.92 in843.9 mb 0.00 in0.0 mm 0.00 in/hr0.0 mm/hr 0.00 in0.0 mm
06:13 PM 60.4°F15.8°C -5537.2°C - 5.0 mph SE8.0 kmh SE 11.0 mph17.7 kmh 24.92 in843.9 mb 0.00 in0.0 mm 0.00 in/hr0.0 mm/hr 0.00 in0.0 mm
06:18 PM 59.7°F15.4°C -5537.2°C - 7.0 mph S11.3 kmh S 10.5 mph16.9 kmh 24.92 in843.9 mb 0.00 in0.0 mm 0.00 in/hr0.0 mm/hr 0.00 in0.0 mm
06:23 PM 59.7°F15.4°C -5537.2°C - 7.0 mph S11.3 kmh S 9.6 mph15.4 kmh 24.92 in843.9 mb 0.00 in0.0 mm 0.00 in/hr0.0 mm/hr 0.00 in0.0 mm
06:28 PM 60.3°F15.7°C -5537.2°C - 6.0 mph S9.7 kmh S 10.5 mph16.9 kmh 24.92 in843.9 mb 0.00 in0.0 mm 0.00 in/hr0.0 mm/hr 0.00 in0.0 mm
06:33 PM 60.3°F15.7°C -5537.2°C - 7.0 mph SSE11.3 kmh SSE 11.0 mph17.7 kmh 24.92 in843.9 mb 0.00 in0.0 mm 0.00 in/hr0.0 mm/hr 0.00 in0.0 mm
06:38 PM 60.1°F15.6°C -5537.2°C - 8.0 mph SSE12.9 kmh SSE 11.6 mph18.7 kmh 24.92 in843.9 mb 0.00 in0.0 mm 0.00 in/hr0.0 mm/hr 0.00 in0.0 mm
06:43 PM 60.1°F15.6°C -5537.2°C - 8.0 mph SE12.9 kmh SE 12.5 mph20.1 kmh 24.92 in843.9 mb 0.00 in0.0 mm 0.00 in/hr0.0 mm/hr 0.00 in0.0 mm
06:48 PM 60.4°F15.8°C -5537.2°C - 6.0 mph SE9.7 kmh SE 6.7 mph10.8 kmh 24.92 in843.9 mb 0.00 in0.0 mm 0.00 in/hr0.0 mm/hr 0.00 in0.0 mm
06:53 PM 60.4°F15.8°C -5537.2°C - 4.0 mph SE6.4 kmh SE 6.7 mph10.8 kmh 24.92 in843.9 mb 0.00 in0.0 mm 0.00 in/hr0.0 mm/hr 0.00 in0.0 mm
06:58 PM 60.1°F15.6°C -5537.2°C - 4.0 mph SE6.4 kmh SE 7.4 mph11.9 kmh 24.92 in843.9 mb 0.00 in0.0 mm 0.00 in/hr0.0 mm/hr 0.00 in0.0 mm
07:03 PM 59.9°F15.5°C -5537.2°C - 5.0 mph SE8.0 kmh SE 6.9 mph11.1 kmh 24.92 in843.9 mb 0.00 in0.0 mm 0.00 in/hr0.0 mm/hr 0.00 in0.0 mm
07:08 PM 59.7°F15.4°C -5537.2°C - 4.0 mph SE6.4 kmh SE 6.9 mph11.1 kmh 24.92 in843.9 mb 0.00 in0.0 mm 0.00 in/hr0.0 mm/hr 0.00 in0.0 mm
07:13 PM 59.5°F15.3°C -5537.2°C - 4.0 mph ESE6.4 kmh ESE 6.3 mph10.1 kmh 24.92 in843.9 mb 0.00 in0.0 mm 0.00 in/hr0.0 mm/hr 0.00 in0.0 mm
07:18 PM 58.6°F14.8°C -5537.2°C - 4.0 mph ESE6.4 kmh ESE 6.7 mph10.8 kmh 24.92 in843.9 mb 0.00 in0.0 mm 0.00 in/hr0.0 mm/hr 0.00 in0.0 mm
07:23 PM 57.9°F14.4°C -5537.2°C - 4.0 mph SE6.4 kmh SE 6.3 mph10.1 kmh 24.92 in843.9 mb 0.00 in0.0 mm 0.00 in/hr0.0 mm/hr 0.00 in0.0 mm
07:28 PM 57.6°F14.2°C -5537.2°C - 4.0 mph SE6.4 kmh SE 6.3 mph10.1 kmh 24.92 in843.9 mb 0.00 in0.0 mm 0.00 in/hr0.0 mm/hr 0.00 in0.0 mm
07:33 PM 57.4°F14.1°C -5537.2°C - 4.0 mph ESE6.4 kmh ESE 7.4 mph11.9 kmh 24.92 in843.9 mb 0.00 in0.0 mm 0.00 in/hr0.0 mm/hr 0.00 in0.0 mm
07:38 PM 57.0°F13.9°C -5537.2°C - 4.0 mph ESE6.4 kmh ESE 7.4 mph11.9 kmh 24.92 in843.9 mb 0.00 in0.0 mm 0.00 in/hr0.0 mm/hr 0.00 in0.0 mm
07:43 PM 56.7°F13.7°C -5537.2°C - 4.0 mph ESE6.4 kmh ESE 6.9 mph11.1 kmh 24.92 in843.9 mb 0.00 in0.0 mm 0.00 in/hr0.0 mm/hr 0.00 in0.0 mm
07:48 PM 56.3°F13.5°C -5537.2°C - 3.0 mph ESE4.8 kmh ESE 6.7 mph10.8 kmh 24.92 in843.9 mb 0.00 in0.0 mm 0.00 in/hr0.0 mm/hr 0.00 in0.0 mm
07:53 PM 56.3°F13.5°C -5537.2°C - 4.0 mph ESE6.4 kmh ESE 9.6 mph15.4 kmh 24.92 in843.9 mb 0.00 in0.0 mm 0.00 in/hr0.0 mm/hr 0.00 in0.0 mm
07:58 PM 56.3°F13.5°C -5537.2°C - 5.0 mph E8.0 kmh E 8.7 mph14.0 kmh 24.92 in843.9 mb 0.00 in0.0 mm 0.00 in/hr0.0 mm/hr 0.00 in0.0 mm
08:03 PM 56.1°F13.4°C -5537.2°C - 5.0 mph E8.0 kmh E 7.4 mph11.9 kmh 24.92 in843.9 mb 0.00 in0.0 mm 0.00 in/hr0.0 mm/hr 0.00 in0.0 mm
08:08 PM 56.1°F13.4°C -5537.2°C - 5.0 mph ESE8.0 kmh ESE 9.2 mph14.8 kmh 24.95 in844.9 mb 0.00 in0.0 mm 0.00 in/hr0.0 mm/hr 0.00 in0.0 mm
08:13 PM 55.9°F13.3°C -5537.2°C - 6.0 mph ESE9.7 kmh ESE 9.2 mph14.8 kmh 24.95 in844.9 mb 0.00 in0.0 mm 0.00 in/hr0.0 mm/hr 0.00 in0.0 mm
08:18 PM 55.8°F13.2°C -5537.2°C - 5.0 mph E8.0 kmh E 9.6 mph15.4 kmh 24.95 in844.9 mb 0.00 in0.0 mm 0.00 in/hr0.0 mm/hr 0.00 in0.0 mm
08:23 PM 55.9°F13.3°C -5537.2°C - 6.0 mph E9.7 kmh E 10.1 mph16.3 kmh 24.95 in844.9 mb 0.00 in0.0 mm 0.00 in/hr0.0 mm/hr 0.00 in0.0 mm
08:28 PM 56.1°F13.4°C -5537.2°C - 6.0 mph ESE9.7 kmh ESE 11.6 mph18.7 kmh 24.95 in844.9 mb 0.00 in0.0 mm 0.00 in/hr0.0 mm/hr 0.00 in0.0 mm
08:33 PM 55.9°F13.3°C -5537.2°C - 7.0 mph ESE11.3 kmh ESE 11.0 mph17.7 kmh 24.95 in844.9 mb 0.00 in0.0 mm 0.00 in/hr0.0 mm/hr 0.00 in0.0 mm
08:38 PM 55.9°F13.3°C -5537.2°C - 6.0 mph ESE9.7 kmh ESE 11.6 mph18.7 kmh 24.95 in844.9 mb 0.00 in0.0 mm 0.00 in/hr0.0 mm/hr 0.00 in0.0 mm
08:43 PM 55.6°F13.1°C -5537.2°C - 6.0 mph ESE9.7 kmh ESE 9.6 mph15.4 kmh 24.95 in844.9 mb 0.00 in0.0 mm 0.00 in/hr0.0 mm/hr 0.00 in0.0 mm
08:48 PM 55.4°F13.0°C -5537.2°C - 6.0 mph ESE9.7 kmh ESE 9.6 mph15.4 kmh 24.95 in844.9 mb 0.00 in0.0 mm 0.00 in/hr0.0 mm/hr 0.00 in0.0 mm
08:53 PM 55.0°F12.8°C -5537.2°C - 6.0 mph ESE9.7 kmh ESE 10.1 mph16.3 kmh 24.95 in844.9 mb 0.00 in0.0 mm 0.00 in/hr0.0 mm/hr 0.00 in0.0 mm
08:58 PM 54.5°F12.5°C -5537.2°C - 6.0 mph SE9.7 kmh SE 8.3 mph13.4 kmh 24.95 in844.9 mb 0.00 in0.0 mm 0.00 in/hr0.0 mm/hr 0.00 in0.0 mm
09:03 PM 54.1°F12.3°C -5537.2°C - 5.0 mph SE8.0 kmh SE 9.6 mph15.4 kmh 24.95 in844.9 mb 0.00 in0.0 mm 0.00 in/hr0.0 mm/hr 0.00 in0.0 mm
09:08 PM 54.1°F12.3°C -5537.2°C - 6.0 mph SE9.7 kmh SE 10.1 mph16.3 kmh 24.95 in844.9 mb 0.00 in0.0 mm 0.00 in/hr0.0 mm/hr 0.00 in0.0 mm
09:13 PM 53.4°F11.9°C -5537.2°C - 6.0 mph SE9.7 kmh SE 8.7 mph14.0 kmh 24.95 in844.9 mb 0.00 in0.0 mm 0.00 in/hr0.0 mm/hr 0.00 in0.0 mm
09:19 PM 54.1°F12.3°C -5537.2°C - 6.0 mph SE9.7 kmh SE 13.4 mph21.6 kmh 24.95 in844.9 mb 0.00 in0.0 mm 0.00 in/hr0.0 mm/hr 0.00 in0.0 mm
09:24 PM 54.7°F12.6°C -5537.2°C - 8.0 mph SE12.9 kmh SE 14.8 mph23.8 kmh 24.95 in844.9 mb 0.00 in0.0 mm 0.00 in/hr0.0 mm/hr 0.00 in0.0 mm
09:29 PM 54.3°F12.4°C -5537.2°C - 8.0 mph SE12.9 kmh SE 11.6 mph18.7 kmh 24.95 in844.9 mb 0.00 in0.0 mm 0.00 in/hr0.0 mm/hr 0.00 in0.0 mm
09:34 PM 53.6°F12.0°C -5537.2°C - 7.0 mph SE11.3 kmh SE 11.6 mph18.7 kmh 24.95 in844.9 mb 0.00 in0.0 mm 0.00 in/hr0.0 mm/hr 0.00 in0.0 mm
09:39 PM 54.5°F12.5°C -5537.2°C - 8.0 mph SE12.9 kmh SE 13.9 mph22.4 kmh 24.95 in844.9 mb 0.00 in0.0 mm 0.00 in/hr0.0 mm/hr 0.00 in0.0 mm
09:44 PM 54.3°F12.4°C -5537.2°C - 8.0 mph SE12.9 kmh SE 13.4 mph21.6 kmh 24.95 in844.9 mb 0.00 in0.0 mm 0.00 in/hr0.0 mm/hr 0.00 in0.0 mm
09:49 PM 55.2°F12.9°C -5537.2°C - 8.0 mph SE12.9 kmh SE 12.1 mph19.5 kmh 24.95 in844.9 mb 0.00 in0.0 mm 0.00 in/hr0.0 mm/hr 0.00 in0.0 mm
09:54 PM 54.0°F12.2°C -5537.2°C - 8.0 mph SE12.9 kmh SE 11.6 mph18.7 kmh 24.95 in844.9 mb 0.00 in0.0 mm 0.00 in/hr0.0 mm/hr 0.00 in0.0 mm
09:59 PM 54.0°F12.2°C -5537.2°C - 8.0 mph SE12.9 kmh SE 12.1 mph19.5 kmh 24.95 in844.9 mb 0.00 in0.0 mm 0.00 in/hr0.0 mm/hr 0.00 in0.0 mm
10:04 PM 54.5°F12.5°C -5537.2°C - 6.0 mph SE9.7 kmh SE 11.2 mph18.0 kmh 24.95 in844.9 mb 0.00 in0.0 mm 0.00 in/hr0.0 mm/hr 0.00 in0.0 mm
10:09 PM 54.5°F12.5°C -5537.2°C - 5.0 mph SE8.0 kmh SE 10.1 mph16.3 kmh 24.95 in844.9 mb 0.00 in0.0 mm 0.00 in/hr0.0 mm/hr 0.00 in0.0 mm
10:14 PM 54.0°F12.2°C -5537.2°C - 4.0 mph SE6.4 kmh SE 7.4 mph11.9 kmh 24.95 in844.9 mb 0.00 in0.0 mm 0.00 in/hr0.0 mm/hr 0.00 in0.0 mm
10:19 PM 52.0°F11.1°C -5537.2°C - 3.0 mph SE4.8 kmh SE 5.8 mph9.3 kmh 24.95 in844.9 mb 0.00 in0.0 mm 0.00 in/hr0.0 mm/hr 0.00 in0.0 mm
10:24 PM 52.0°F11.1°C -5537.2°C - 4.0 mph SW6.4 kmh SW 11.2 mph18.0 kmh 24.98 in845.9 mb 0.00 in0.0 mm 0.00 in/hr0.0 mm/hr 0.00 in0.0 mm
10:29 PM 52.0°F11.1°C -5537.2°C - 7.0 mph WSW11.3 kmh WSW 10.5 mph16.9 kmh 24.98 in845.9 mb 0.00 in0.0 mm 0.00 in/hr0.0 mm/hr 0.00 in0.0 mm
10:34 PM 52.0°F11.1°C -5537.2°C - 7.0 mph W11.3 kmh W 8.7 mph14.0 kmh 24.98 in845.9 mb 0.00 in0.0 mm 0.00 in/hr0.0 mm/hr 0.00 in0.0 mm
10:39 PM 52.2°F11.2°C -5537.2°C - 5.0 mph WNW8.0 kmh WNW 7.4 mph11.9 kmh 24.98 in845.9 mb 0.00 in0.0 mm 0.00 in/hr0.0 mm/hr 0.00 in0.0 mm
10:44 PM 51.8°F11.0°C -5537.2°C - 3.0 mph WNW4.8 kmh WNW 5.8 mph9.3 kmh 24.98 in845.9 mb 0.00 in0.0 mm 0.00 in/hr0.0 mm/hr 0.00 in0.0 mm
10:49 PM 50.4°F10.2°C -5537.2°C - 3.0 mph W4.8 kmh W 6.3 mph10.1 kmh 24.98 in845.9 mb 0.00 in0.0 mm 0.00 in/hr0.0 mm/hr 0.00 in0.0 mm
10:54 PM 49.6°F9.8°C -5537.2°C - 4.0 mph SW6.4 kmh SW 5.8 mph9.3 kmh 24.98 in845.9 mb 0.00 in0.0 mm 0.00 in/hr0.0 mm/hr 0.00 in0.0 mm
10:59 PM 49.3°F9.6°C -2.9°F-19.4°C 11% 3.0 mph S4.8 kmh S 4.5 mph7.2 kmh 24.98 in845.9 mb 0.00 in0.0 mm 0.00 in/hr0.0 mm/hr 0.00 in0.0 mm
11:04 PM 49.5°F9.7°C -2.7°F-19.3°C 11% 2.0 mph S3.2 kmh S 4.5 mph7.2 kmh 24.98 in845.9 mb 0.00 in0.0 mm 0.00 in/hr0.0 mm/hr 0.00 in0.0 mm
11:09 PM 50.2°F10.1°C -2.2°F-19.0°C 11% 3.0 mph S4.8 kmh S 4.9 mph7.9 kmh 24.98 in845.9 mb 0.00 in0.0 mm 0.00 in/hr0.0 mm/hr 0.00 in0.0 mm
11:14 PM 50.5°F10.3°C -2.0°F-18.9°C 11% 2.0 mph W3.2 kmh W 3.1 mph5.0 kmh 24.98 in845.9 mb 0.00 in0.0 mm 0.00 in/hr0.0 mm/hr 0.00 in0.0 mm
11:19 PM 50.2°F10.1°C -2.2°F-19.0°C 11% Calm Calm 3.1 mph5.0 kmh 24.98 in845.9 mb 0.00 in0.0 mm 0.00 in/hr0.0 mm/hr 0.00 in0.0 mm
11:24 PM 49.8°F9.9°C -2.6°F-19.2°C 11% Calm Calm 3.6 mph5.8 kmh 24.98 in845.9 mb 0.00 in0.0 mm 0.00 in/hr0.0 mm/hr 0.00 in0.0 mm
11:29 PM 48.9°F9.4°C -3.3°F-19.6°C 11% Calm Calm 2.7 mph4.3 kmh 24.98 in845.9 mb 0.00 in0.0 mm 0.00 in/hr0.0 mm/hr 0.00 in0.0 mm
11:34 PM 48.6°F9.2°C -3.5°F-19.7°C 11% 1.0 mph NW1.6 kmh NW 4.0 mph6.4 kmh 24.98 in845.9 mb 0.00 in0.0 mm 0.00 in/hr0.0 mm/hr 0.00 in0.0 mm
11:39 PM 47.3°F8.5°C -2.7°F-19.3°C 12% 2.0 mph NW3.2 kmh NW 4.5 mph7.2 kmh 24.98 in845.9 mb 0.00 in0.0 mm 0.00 in/hr0.0 mm/hr 0.00 in0.0 mm
11:44 PM 46.9°F8.3°C -2.9°F-19.4°C 12% 1.0 mph NW1.6 kmh NW -- 24.98 in845.9 mb 0.00 in0.0 mm 0.00 in/hr0.0 mm/hr 0.00 in0.0 mm
11:49 PM 46.8°F8.2°C -3.1°F-19.5°C 12% Calm Calm 3.1 mph5.0 kmh 24.98 in845.9 mb 0.00 in0.0 mm 0.00 in/hr0.0 mm/hr 0.00 in0.0 mm
11:54 PM 46.0°F7.8°C -0.4°F-18.0°C 14% 1.0 mph NW1.6 kmh NW 3.6 mph5.8 kmh 24.98 in845.9 mb 0.00 in0.0 mm 0.00 in/hr0.0 mm/hr 0.00 in0.0 mm
11:59 PM 45.5°F7.5°C -0.9°F-18.3°C 14% 1.0 mph NW1.6 kmh NW 3.1 mph5.0 kmh 24.98 in845.9 mb 0.00 in0.0 mm 0.00 in/hr0.0 mm/hr 0.00 in0.0 mm